createdAt,value
2023-05-05T00:01:16.142Z,17.23
2023-05-05T00:03:37.957Z,17.31
2023-05-05T00:05:59.860Z,17.39
2023-05-05T00:08:22.275Z,17.45
2023-05-05T00:10:52.377Z,17.51
2023-05-05T00:13:15.196Z,17.59
2023-05-05T00:15:38.257Z,17.62
2023-05-05T00:17:59.970Z,17.69
2023-05-05T00:20:22.929Z,17.76
2023-05-05T00:22:44.565Z,17.82
2023-05-05T00:25:07.111Z,17.86
2023-05-05T00:27:28.779Z,17.92
2023-05-05T00:29:50.700Z,17.97
2023-05-05T00:32:12.315Z,18.03
2023-05-05T00:34:34.121Z,18.03
2023-05-05T00:36:55.821Z,18.05
2023-05-05T00:39:17.495Z,18.08
2023-05-05T00:41:39.182Z,18.09
2023-05-05T00:44:00.900Z,18.11
2023-05-05T00:46:26.935Z,18.12
2023-05-05T00:48:48.945Z,18.10
2023-05-05T00:51:10.733Z,18.09
2023-05-05T00:53:33.097Z,18.08
2023-05-05T00:55:55.007Z,18.07
2023-05-05T00:58:18.097Z,18.04
2023-05-05T01:00:40.261Z,18.04
2023-05-05T01:03:02.175Z,18.05
2023-05-05T01:05:27.002Z,18.04
2023-05-05T01:08:22.995Z,18.06
2023-05-05T01:10:53.162Z,18.05
2023-05-05T01:13:31.610Z,18.04
2023-05-05T01:16:27.657Z,18.04
2023-05-05T01:19:03.931Z,18.03
2023-05-05T01:21:41.306Z,18.04
2023-05-05T01:25:03.352Z,18.04
2023-05-05T01:28:00.142Z,18.00
2023-05-05T01:31:08.532Z,18.01
2023-05-05T01:33:43.890Z,18.04
2023-05-05T01:36:22.623Z,18.05
2023-05-05T01:38:46.725Z,18.06
2023-05-05T01:41:19.373Z,18.06
2023-05-05T01:43:45.781Z,18.03
2023-05-05T01:46:08.853Z,17.98
2023-05-05T01:48:33.376Z,17.95
2023-05-05T01:50:55.337Z,17.92
2023-05-05T01:53:20.441Z,17.87
2023-05-05T01:55:43.321Z,17.85
2023-05-05T01:58:07.701Z,17.83
2023-05-05T02:00:31.755Z,17.81
2023-05-05T02:02:59.826Z,17.75
2023-05-05T02:05:24.988Z,17.74
2023-05-05T02:07:47.318Z,17.73
2023-05-05T02:10:13.531Z,17.73
2023-05-05T02:12:37.308Z,17.71
2023-05-05T02:15:02.648Z,17.71
2023-05-05T02:17:27.591Z,17.68
2023-05-05T02:19:52.975Z,17.64
2023-05-05T02:22:16.538Z,17.62
2023-05-05T02:24:38.574Z,17.59
2023-05-05T02:27:06.015Z,17.55
2023-05-05T02:29:48.738Z,17.52
2023-05-05T02:32:20.439Z,17.48
2023-05-05T02:34:46.335Z,17.44
2023-05-05T02:37:19.677Z,17.40
2023-05-05T02:39:51.584Z,17.36
2023-05-05T02:42:21.624Z,17.29
2023-05-05T02:44:46.329Z,17.23
2023-05-05T02:47:09.092Z,17.19
2023-05-05T02:49:31.448Z,17.12
2023-05-05T02:51:55.311Z,17.07
2023-05-05T02:54:21.469Z,17.03
2023-05-05T02:56:49.423Z,17.00
2023-05-05T02:59:53.125Z,16.97
2023-05-05T03:02:31.780Z,16.84
2023-05-05T03:05:02.799Z,16.76
2023-05-05T03:07:31.548Z,16.66
2023-05-05T03:10:09.497Z,16.57
2023-05-05T03:12:58.535Z,16.48
2023-05-05T03:15:41.480Z,16.37
2023-05-05T03:18:04.321Z,16.27
2023-05-05T03:20:26.709Z,16.19
2023-05-05T03:22:50.911Z,16.12
2023-05-05T03:25:13.054Z,16.08
2023-05-05T03:27:35.016Z,16.02
2023-05-05T03:29:57.390Z,15.98
2023-05-05T03:32:20.901Z,15.97
2023-05-05T03:34:42.799Z,15.92
2023-05-05T03:37:04.676Z,15.87
2023-05-05T03:39:26.471Z,15.81
2023-05-05T03:41:49.231Z,15.77
2023-05-05T03:44:13.378Z,15.74
2023-05-05T03:46:35.979Z,15.72
2023-05-05T03:48:58.845Z,15.67
2023-05-05T03:51:22.065Z,15.60
2023-05-05T03:53:43.817Z,15.54
2023-05-05T03:56:05.910Z,15.47
2023-05-05T03:58:27.823Z,15.43
2023-05-05T04:00:49.484Z,15.38
2023-05-05T04:03:12.249Z,15.34
2023-05-05T04:05:34.096Z,15.29
2023-05-05T04:07:57.884Z,15.24
2023-05-05T04:10:20.065Z,15.24
2023-05-05T04:12:41.855Z,15.22
2023-05-05T04:15:04.052Z,15.23
2023-05-05T04:17:26.358Z,15.19
2023-05-05T04:19:48.187Z,15.17
2023-05-05T04:22:09.930Z,15.15
2023-05-05T04:24:31.763Z,15.15
2023-05-05T04:26:54.574Z,15.14
2023-05-05T04:29:16.767Z,15.15
2023-05-05T04:31:38.572Z,15.17
2023-05-05T04:34:00.434Z,15.17
2023-05-05T04:36:22.393Z,15.19
2023-05-05T04:38:44.691Z,15.21
2023-05-05T04:41:06.671Z,15.23
2023-05-05T04:43:29.506Z,15.25
2023-05-05T04:45:55.891Z,15.25
2023-05-05T04:48:21.284Z,15.26
2023-05-05T04:50:42.934Z,15.26
2023-05-05T04:53:04.733Z,15.28
2023-05-05T04:55:26.580Z,15.30
2023-05-05T04:57:48.300Z,15.29
2023-05-05T05:00:11.028Z,15.32
2023-05-05T05:02:33.092Z,15.34
2023-05-05T05:04:54.939Z,15.35
2023-05-05T05:07:16.715Z,15.37
2023-05-05T05:09:38.464Z,15.39
2023-05-05T05:12:03.054Z,15.41
2023-05-05T05:14:24.790Z,15.41
2023-05-05T05:16:51.051Z,15.43
2023-05-05T05:19:14.345Z,15.44
2023-05-05T05:21:36.237Z,15.46
2023-05-05T05:23:58.389Z,15.51
2023-05-05T05:26:21.405Z,15.55
2023-05-05T05:28:43.917Z,15.61
2023-05-05T05:31:05.679Z,15.67
2023-05-05T05:33:27.492Z,15.72
2023-05-05T05:35:50.851Z,15.74
2023-05-05T05:38:15.221Z,15.78
2023-05-05T05:40:37.374Z,15.82
2023-05-05T05:42:59.106Z,15.88
2023-05-05T05:45:23.337Z,15.94
2023-05-05T05:47:45.234Z,16.01
2023-05-05T05:50:07.898Z,16.07
2023-05-05T05:52:30.502Z,16.13
2023-05-05T05:54:52.362Z,16.21
2023-05-05T05:57:14.164Z,16.31
2023-05-05T05:59:36.252Z,16.39
2023-05-05T06:01:59.153Z,16.47
2023-05-05T06:04:21.172Z,16.57
2023-05-05T06:06:43.784Z,16.64
2023-05-05T06:09:05.760Z,16.74
2023-05-05T06:11:28.498Z,16.81
2023-05-05T06:13:50.415Z,16.87
2023-05-05T06:16:12.549Z,16.99
2023-05-05T06:18:38.202Z,17.07
2023-05-05T06:21:00.316Z,17.14
2023-05-05T06:23:24.316Z,17.21
2023-05-05T06:25:51.626Z,17.27
2023-05-05T06:28:13.313Z,17.35
2023-05-05T06:30:35.082Z,17.45
2023-05-05T06:32:58.606Z,17.57
2023-05-05T06:35:22.116Z,17.64
2023-05-05T06:37:44.348Z,17.76
2023-05-05T06:40:07.953Z,17.86
2023-05-05T06:42:30.869Z,17.98
2023-05-05T06:44:53.637Z,18.04
2023-05-05T06:47:16.085Z,18.11
2023-05-05T06:49:37.765Z,18.24
2023-05-05T06:51:59.668Z,18.38
2023-05-05T06:54:21.424Z,18.46
2023-05-05T06:56:43.171Z,18.56
2023-05-05T06:59:04.994Z,18.68
2023-05-05T07:01:26.849Z,18.75
2023-05-05T07:03:48.774Z,18.84
2023-05-05T07:06:11.388Z,18.91
2023-05-05T07:08:33.120Z,18.83
2023-05-05T07:10:55.266Z,18.84
2023-05-05T07:13:17.401Z,18.91
2023-05-05T07:15:46.391Z,19.03
2023-05-05T07:18:08.215Z,19.11
2023-05-05T07:20:30.053Z,19.15
2023-05-05T07:22:51.740Z,19.25
2023-05-05T07:25:13.478Z,19.36
2023-05-05T07:27:37.264Z,19.47
2023-05-05T07:29:59.164Z,19.59
2023-05-05T07:32:21.052Z,19.74
2023-05-05T07:34:42.884Z,19.85
2023-05-05T07:37:05.261Z,19.89
2023-05-05T07:39:27.103Z,19.96
2023-05-05T07:41:49.217Z,20.04
2023-05-05T07:44:11.486Z,20.16
2023-05-05T07:46:33.334Z,20.29
2023-05-05T07:48:55.184Z,20.44
2023-05-05T07:51:17.513Z,20.49
2023-05-05T07:53:41.219Z,20.56
2023-05-05T07:56:03.532Z,20.67
2023-05-05T07:58:25.382Z,20.70
2023-05-05T08:00:47.889Z,20.73
2023-05-05T08:03:11.942Z,20.78
2023-05-05T08:05:33.933Z,20.88
2023-05-05T08:07:55.811Z,21.00
2023-05-05T08:10:17.632Z,21.10
2023-05-05T08:12:40.398Z,21.30
2023-05-05T08:15:02.391Z,21.52
2023-05-05T08:17:26.248Z,21.69
2023-05-05T08:19:52.175Z,21.86
2023-05-05T08:22:14.138Z,21.83
2023-05-05T08:24:36.188Z,21.86
2023-05-05T08:26:57.962Z,21.76
2023-05-05T08:29:19.764Z,21.78
2023-05-05T08:31:41.545Z,21.97
2023-05-05T08:34:05.900Z,22.17
2023-05-05T08:36:29.054Z,22.29
2023-05-05T08:38:51.296Z,22.40
2023-05-05T08:41:17.154Z,22.46
2023-05-05T08:43:39.394Z,22.54
2023-05-05T08:46:01.648Z,22.53
2023-05-05T08:48:28.337Z,22.57
2023-05-05T08:51:00.323Z,22.69
2023-05-05T08:54:02.501Z,22.75
2023-05-05T08:56:33.976Z,22.91
2023-05-05T08:58:57.695Z,22.90
2023-05-05T09:01:21.221Z,22.87
2023-05-05T09:03:44.629Z,22.89
2023-05-05T09:06:07.259Z,22.92
2023-05-05T09:08:29.633Z,22.99
2023-05-05T09:10:52.199Z,23.04
2023-05-05T09:13:18.474Z,23.04
2023-05-05T09:15:42.048Z,23.05
2023-05-05T09:18:09.391Z,23.01
2023-05-05T09:20:37.324Z,22.97
2023-05-05T09:23:11.936Z,22.95
2023-05-05T09:25:33.616Z,22.89
2023-05-05T09:27:55.316Z,22.85
2023-05-05T09:30:29.448Z,22.82
2023-05-05T09:32:54.701Z,22.75
2023-05-05T09:35:19.148Z,22.69
2023-05-05T09:37:41.642Z,22.67
2023-05-05T09:40:03.595Z,22.63
2023-05-05T09:42:25.308Z,22.60
2023-05-05T09:44:48.160Z,22.58
2023-05-05T09:47:21.974Z,22.53
2023-05-05T09:49:44.196Z,22.52
2023-05-05T09:52:16.452Z,22.53
2023-05-05T09:54:38.476Z,22.54
2023-05-05T09:57:00.257Z,22.57
2023-05-05T09:59:23.176Z,22.60
2023-05-05T10:01:44.998Z,22.62
2023-05-05T10:04:06.794Z,22.57
2023-05-05T10:06:48.214Z,22.56
2023-05-05T10:09:10.782Z,22.54
2023-05-05T10:11:34.531Z,22.52
2023-05-05T10:13:56.811Z,22.45
2023-05-05T10:16:20.864Z,22.42
2023-05-05T10:18:46.943Z,22.40
2023-05-05T10:21:10.668Z,22.39
2023-05-05T10:23:41.810Z,22.34
2023-05-05T10:26:08.201Z,22.30
2023-05-05T10:28:54.976Z,22.31
2023-05-05T10:31:30.596Z,22.27
2023-05-05T10:34:10.625Z,22.24
2023-05-05T10:36:34.247Z,22.21
2023-05-05T10:38:57.814Z,22.20
2023-05-05T10:41:21.382Z,22.25
2023-05-05T10:43:43.878Z,22.30
2023-05-05T10:46:06.784Z,22.32
2023-05-05T10:48:39.838Z,22.33
2023-05-05T10:51:39.920Z,22.25
2023-05-05T10:54:20.736Z,22.21
2023-05-05T10:56:43.524Z,22.16
2023-05-05T10:59:37.138Z,22.10
2023-05-05T11:01:58.902Z,22.05
2023-05-05T11:04:23.336Z,22.04
2023-05-05T11:07:09.129Z,22.01
2023-05-05T11:09:32.322Z,21.94
2023-05-05T11:12:07.133Z,21.89
2023-05-05T11:14:28.769Z,21.79
2023-05-05T11:16:51.109Z,21.64
2023-05-05T11:19:43.957Z,21.55
2023-05-05T11:22:05.664Z,21.35
2023-05-05T11:24:31.292Z,21.13
2023-05-05T11:26:53.109Z,20.92
2023-05-05T11:29:14.779Z,20.74
2023-05-05T11:31:36.679Z,20.41
2023-05-05T11:34:29.072Z,19.97
2023-05-05T11:36:53.756Z,19.54
2023-05-05T11:39:54.330Z,19.04
2023-05-05T11:42:27.261Z,18.45
2023-05-05T11:44:49.665Z,17.96
2023-05-05T11:47:11.324Z,17.52
2023-05-05T11:49:34.924Z,17.08
2023-05-05T11:51:58.214Z,16.69
2023-05-05T11:54:21.558Z,16.40
2023-05-05T11:56:52.131Z,16.23
2023-05-05T11:59:13.845Z,16.11
2023-05-05T12:01:41.503Z,16.07
2023-05-05T12:04:04.199Z,15.98
2023-05-05T12:06:26.857Z,15.97
2023-05-05T12:08:48.536Z,15.94
2023-05-05T12:11:11.616Z,15.93
2023-05-05T12:13:33.408Z,15.88
2023-05-05T12:15:55.081Z,15.80
2023-05-05T12:18:20.843Z,15.76
2023-05-05T12:20:42.595Z,15.77
2023-05-05T12:23:04.778Z,15.80
2023-05-05T12:25:36.872Z,15.87
2023-05-05T12:27:58.673Z,15.93
2023-05-05T12:30:21.754Z,15.95
2023-05-05T12:32:45.068Z,15.96
2023-05-05T12:35:09.861Z,15.97
2023-05-05T12:37:32.465Z,16.01
2023-05-05T12:39:57.172Z,16.12
2023-05-05T12:42:19.454Z,16.16
2023-05-05T12:44:43.703Z,16.26
2023-05-05T12:47:07.018Z,16.25
2023-05-05T12:49:29.191Z,16.23
2023-05-05T12:51:56.532Z,16.25
2023-05-05T12:54:19.464Z,16.28
2023-05-05T12:56:50.713Z,16.29
2023-05-05T12:59:30.157Z,16.29
2023-05-05T13:01:54.273Z,16.26
2023-05-05T13:04:17.391Z,16.25
2023-05-05T13:06:44.999Z,16.25
2023-05-05T13:09:09.997Z,16.25
2023-05-05T13:11:39.813Z,16.27
2023-05-05T13:14:01.977Z,16.20
2023-05-05T13:16:24.224Z,16.19
2023-05-05T13:18:50.461Z,16.17
2023-05-05T13:21:12.889Z,16.13
2023-05-05T13:23:34.679Z,16.13
2023-05-05T13:25:56.966Z,16.14
2023-05-05T13:28:18.664Z,16.16
2023-05-05T13:30:42.806Z,16.17
2023-05-05T13:33:05.111Z,16.19
2023-05-05T13:35:27.311Z,16.19
2023-05-05T13:37:49.094Z,16.25
2023-05-05T13:40:13.454Z,16.35
2023-05-05T13:42:35.180Z,16.38
2023-05-05T13:44:56.922Z,16.36
2023-05-05T13:47:18.742Z,16.35
2023-05-05T13:49:40.651Z,16.35
2023-05-05T13:52:02.839Z,16.34
2023-05-05T13:54:24.576Z,16.32
2023-05-05T13:56:46.668Z,16.25
2023-05-05T13:59:09.303Z,16.25
2023-05-05T14:01:31.284Z,16.23
2023-05-05T14:03:54.458Z,16.18
2023-05-05T14:06:18.317Z,16.15
2023-05-05T14:08:40.289Z,16.12
2023-05-05T14:11:03.190Z,16.09
2023-05-05T14:13:25.141Z,16.05
2023-05-05T14:15:47.311Z,15.98
2023-05-05T14:18:09.657Z,15.98
2023-05-05T14:20:31.755Z,16.01
2023-05-05T14:22:54.729Z,16.06
2023-05-05T14:25:16.681Z,16.14
2023-05-05T14:27:40.386Z,16.21
2023-05-05T14:30:04.182Z,16.31
2023-05-05T14:32:26.755Z,16.39
2023-05-05T14:34:50.431Z,16.56
2023-05-05T14:37:12.682Z,16.65
2023-05-05T14:39:35.822Z,16.73
2023-05-05T14:41:58.229Z,16.73
2023-05-05T14:44:20.376Z,16.75
2023-05-05T14:46:44.677Z,16.72
2023-05-05T14:49:07.592Z,16.67
2023-05-05T14:51:29.703Z,16.61
2023-05-05T14:53:51.517Z,16.62
2023-05-05T14:56:14.245Z,16.63
2023-05-05T14:58:36.240Z,16.62
2023-05-05T15:00:58.161Z,16.60
2023-05-05T15:03:20.667Z,16.59
2023-05-05T15:05:42.705Z,16.60
2023-05-05T15:08:04.800Z,16.61
2023-05-05T15:10:26.601Z,16.63
2023-05-05T15:12:48.772Z,16.60
2023-05-05T15:15:11.433Z,16.55
2023-05-05T15:17:33.415Z,16.47
2023-05-05T15:19:55.152Z,16.44
2023-05-05T15:22:16.922Z,16.44
2023-05-05T15:24:38.999Z,16.48
2023-05-05T15:27:00.787Z,16.50
2023-05-05T15:29:22.782Z,16.43
2023-05-05T15:31:45.653Z,16.46
2023-05-05T15:34:07.587Z,16.52
2023-05-05T15:36:29.234Z,16.57
2023-05-05T15:38:51.042Z,16.60
2023-05-05T15:41:12.928Z,16.68
2023-05-05T15:43:35.158Z,16.76
2023-05-05T15:45:57.362Z,16.84
2023-05-05T15:48:19.115Z,16.84
2023-05-05T15:50:41.575Z,16.91
2023-05-05T15:53:03.278Z,16.95
2023-05-05T15:55:25.634Z,17.02
2023-05-05T15:57:47.361Z,17.05
2023-05-05T16:00:10.322Z,17.15
2023-05-05T16:02:32.590Z,17.23
2023-05-05T16:04:55.076Z,17.23
2023-05-05T16:07:18.594Z,17.27
2023-05-05T16:09:40.295Z,17.25
2023-05-05T16:12:02.830Z,17.26
2023-05-05T16:14:25.045Z,17.35
2023-05-05T16:16:46.971Z,17.42
2023-05-05T16:19:09.149Z,17.56
2023-05-05T16:21:31.717Z,17.57
2023-05-05T16:23:54.267Z,17.52
2023-05-05T16:26:16.781Z,17.48
2023-05-05T16:28:38.808Z,17.46
2023-05-05T16:31:02.508Z,17.47
2023-05-05T16:33:24.713Z,17.53
2023-05-05T16:35:47.996Z,17.64
2023-05-05T16:38:10.595Z,17.71
2023-05-05T16:40:33.229Z,17.79
2023-05-05T16:42:56.627Z,17.87
2023-05-05T16:45:18.626Z,17.92
2023-05-05T16:47:40.971Z,17.94
2023-05-05T16:50:04.593Z,17.96
2023-05-05T16:52:26.964Z,17.83
2023-05-05T16:54:55.660Z,17.77
2023-05-05T16:57:18.227Z,17.70
2023-05-05T16:59:42.298Z,17.66
2023-05-05T17:02:04.913Z,17.71
2023-05-05T17:04:27.825Z,17.77
2023-05-05T17:06:49.892Z,17.94
2023-05-05T17:09:12.596Z,18.10
2023-05-05T17:11:36.371Z,18.25
2023-05-05T17:13:58.670Z,18.34
2023-05-05T17:16:20.810Z,18.40
2023-05-05T17:18:42.904Z,18.48
2023-05-05T17:21:05.143Z,18.59
2023-05-05T17:23:27.231Z,18.65
2023-05-05T17:25:49.039Z,18.73
2023-05-05T17:28:10.972Z,18.74
2023-05-05T17:30:32.950Z,18.73
2023-05-05T17:32:55.271Z,18.68
2023-05-05T17:35:17.298Z,18.62
2023-05-05T17:37:39.325Z,18.56
2023-05-05T17:40:01.092Z,18.54
2023-05-05T17:42:23.095Z,18.51
2023-05-05T17:44:47.003Z,18.47
2023-05-05T17:47:10.675Z,18.46
2023-05-05T17:49:32.720Z,18.44
2023-05-05T17:51:54.882Z,18.40
2023-05-05T17:54:16.905Z,18.37
2023-05-05T17:56:38.996Z,18.35
2023-05-05T17:59:01.207Z,18.30
2023-05-05T18:01:24.745Z,18.23
2023-05-05T18:03:47.253Z,18.16
2023-05-05T18:06:09.090Z,18.08
2023-05-05T18:08:30.973Z,17.98
2023-05-05T18:10:54.326Z,17.90
2023-05-05T18:13:16.651Z,17.82
2023-05-05T18:15:40.062Z,17.79
2023-05-05T18:18:01.905Z,17.75
2023-05-05T18:20:23.657Z,17.70
2023-05-05T18:22:46.710Z,17.68
2023-05-05T18:25:09.485Z,17.69
2023-05-05T18:27:32.609Z,17.67
2023-05-05T18:29:55.730Z,17.65
2023-05-05T18:32:18.462Z,17.62
2023-05-05T18:34:41.597Z,17.59
2023-05-05T18:37:03.382Z,17.59
2023-05-05T18:39:25.781Z,17.54
2023-05-05T18:41:47.652Z,17.50
2023-05-05T18:44:10.467Z,17.44
2023-05-05T18:46:32.776Z,17.40
2023-05-05T18:48:54.965Z,17.33
2023-05-05T18:51:17.201Z,17.27
2023-05-05T18:53:40.373Z,17.19
2023-05-05T18:56:02.120Z,17.13
2023-05-05T18:58:24.440Z,17.07
2023-05-05T19:00:46.520Z,17.03
2023-05-05T19:03:08.207Z,16.98
2023-05-05T19:05:30.018Z,16.94
2023-05-05T19:07:51.763Z,16.88
2023-05-05T19:10:13.752Z,16.84
2023-05-05T19:12:35.796Z,16.75
2023-05-05T19:14:57.633Z,16.68
2023-05-05T19:17:19.373Z,16.62
2023-05-05T19:19:41.269Z,16.57
2023-05-05T19:22:03.687Z,16.50
2023-05-05T19:24:25.480Z,16.42
2023-05-05T19:26:47.154Z,16.34
2023-05-05T19:29:08.920Z,16.23
2023-05-05T19:31:31.315Z,16.12
2023-05-05T19:34:05.287Z,16.02
2023-05-05T19:36:27.870Z,15.90
2023-05-05T19:38:49.951Z,15.81
2023-05-05T19:41:12.178Z,15.74
2023-05-05T19:43:34.185Z,15.66
2023-05-05T19:45:56.250Z,15.59
2023-05-05T19:48:17.878Z,15.55
2023-05-05T19:50:39.568Z,15.50
2023-05-05T19:53:02.854Z,15.47
2023-05-05T19:55:24.752Z,15.42
2023-05-05T19:57:46.528Z,15.37
2023-05-05T20:00:10.482Z,15.31
2023-05-05T20:02:34.675Z,15.23
2023-05-05T20:04:58.138Z,15.18
2023-05-05T20:07:19.862Z,15.12
2023-05-05T20:09:41.487Z,15.06
2023-05-05T20:12:03.554Z,15.02
2023-05-05T20:14:25.685Z,14.97
2023-05-05T20:16:47.982Z,14.94
2023-05-05T20:19:10.051Z,14.89
2023-05-05T20:21:33.731Z,14.84
2023-05-05T20:23:55.797Z,14.77
2023-05-05T20:26:17.855Z,14.70
2023-05-05T20:28:43.239Z,14.64
2023-05-05T20:31:07.730Z,14.59
2023-05-05T20:33:29.527Z,14.55
2023-05-05T20:35:51.537Z,14.51
2023-05-05T20:38:14.224Z,14.47
2023-05-05T20:40:37.091Z,14.45
2023-05-05T20:42:59.884Z,14.41
2023-05-05T20:45:21.762Z,14.34
2023-05-05T20:47:43.731Z,14.28
2023-05-05T20:50:07.574Z,14.24
2023-05-05T20:52:29.374Z,14.18
2023-05-05T20:54:51.193Z,14.12
2023-05-05T20:57:13.792Z,14.07
2023-05-05T20:59:36.874Z,14.00
2023-05-05T21:01:58.707Z,13.94
2023-05-05T21:04:22.016Z,13.86
2023-05-05T21:06:43.858Z,13.84
2023-05-05T21:09:05.607Z,13.80
2023-05-05T21:11:27.382Z,13.81
2023-05-05T21:13:49.284Z,13.80
2023-05-05T21:16:11.894Z,13.78
2023-05-05T21:18:33.634Z,13.76
2023-05-05T21:20:56.237Z,13.72
2023-05-05T21:23:17.992Z,13.68
2023-05-05T21:25:39.820Z,13.65
2023-05-05T21:28:01.842Z,13.63
2023-05-05T21:30:24.101Z,13.61
2023-05-05T21:32:45.995Z,13.59
2023-05-05T21:35:09.300Z,13.55
2023-05-05T21:37:31.314Z,13.53
2023-05-05T21:39:53.177Z,13.52
2023-05-05T21:42:15.179Z,13.53
2023-05-05T21:44:36.969Z,13.52
2023-05-05T21:46:58.977Z,13.49
2023-05-05T21:49:22.480Z,13.47
2023-05-05T21:51:45.788Z,13.44
2023-05-05T21:54:07.614Z,13.39
2023-05-05T21:56:29.531Z,13.32
2023-05-05T21:58:51.808Z,13.28
2023-05-05T22:01:14.542Z,13.22
2023-05-05T22:03:36.791Z,13.17
2023-05-05T22:05:58.822Z,13.16
2023-05-05T22:08:20.703Z,13.16
2023-05-05T22:10:42.992Z,13.14
2023-05-05T22:13:05.006Z,13.12
2023-05-05T22:15:32.606Z,13.12
2023-05-05T22:17:55.236Z,13.12
2023-05-05T22:20:17.198Z,13.13
2023-05-05T22:22:39.195Z,13.12
2023-05-05T22:25:01.104Z,13.12
2023-05-05T22:27:23.215Z,13.14
2023-05-05T22:29:44.914Z,13.18
2023-05-05T22:32:06.665Z,13.19
2023-05-05T22:34:28.318Z,13.21
2023-05-05T22:36:50.109Z,13.22
2023-05-05T22:39:11.901Z,13.23
2023-05-05T22:41:33.615Z,13.25
2023-05-05T22:43:56.300Z,13.28
2023-05-05T22:46:18.082Z,13.32
2023-05-05T22:48:39.793Z,13.35
2023-05-05T22:51:01.593Z,13.37
2023-05-05T22:53:24.227Z,13.39
2023-05-05T22:55:46.057Z,13.37
2023-05-05T22:58:07.946Z,13.38
2023-05-05T23:00:30.728Z,13.42
2023-05-05T23:02:52.621Z,13.47
2023-05-05T23:05:14.329Z,13.52
2023-05-05T23:07:36.118Z,13.56
2023-05-05T23:09:57.758Z,13.58
2023-05-05T23:12:19.439Z,13.60
2023-05-05T23:14:41.988Z,13.63
2023-05-05T23:17:03.811Z,13.63
2023-05-05T23:19:26.263Z,13.65
2023-05-05T23:21:53.318Z,13.67
2023-05-05T23:24:15.590Z,13.68
2023-05-05T23:26:37.251Z,13.68
2023-05-05T23:28:58.911Z,13.69
2023-05-05T23:31:20.640Z,13.69
2023-05-05T23:33:42.337Z,13.68
2023-05-05T23:36:04.597Z,13.65
2023-05-05T23:38:26.282Z,13.62
2023-05-05T23:40:48.009Z,13.56
2023-05-05T23:43:09.746Z,13.53
2023-05-05T23:45:31.465Z,13.47
2023-05-05T23:47:53.647Z,13.44
2023-05-05T23:50:15.660Z,13.42
2023-05-05T23:52:37.383Z,13.40
2023-05-05T23:54:59.048Z,13.37
2023-05-05T23:57:20.723Z,13.36
2023-05-05T23:59:42.427Z,13.34
